Time;durP1;ratioP1;P1;durP2;ratioP2;P2;SDS_P1;SDS_P2;PMS_P1;PMS_P2;Temp;Humidity;BMP_temperature;BMP_pressure;BME280_temperature;BME280_humidity;BME280_pressure;Samples;Min_cycle;Max_cycle;Signal;HPM_P1;HPM_P2
2023/07/24 00:02:06;;;;;;;30.92;12.73;;;;;;;22.57;47.50;94430.69;6164169;23;20001;-89
2023/07/24 00:04:32;;;;;;;26.05;11.48;;;;;;;22.53;47.88;94424.50;6163375;23;20410;-89
2023/07/24 00:06:57;;;;;;;24.58;12.00;;;;;;;22.49;48.75;94432.41;6188707;23;20004;-89
2023/07/24 00:09:23;;;;;;;23.95;12.48;;;;;;;22.35;47.17;94424.75;6188623;23;20031;-90
2023/07/24 00:11:48;;;;;;;25.67;12.43;;;;;;;22.35;46.73;94430.09;6188553;23;20001;-90
2023/07/24 00:14:15;;;;;;;25.73;12.45;;;;;;;22.49;46.61;94428.97;6187787;23;20009;-89
2023/07/24 00:16:40;;;;;;;23.67;11.60;;;;;;;22.55;47.41;94423.03;6188747;23;19996;-89
2023/07/24 00:19:06;;;;;;;24.38;12.77;;;;;;;22.50;46.66;94417.16;6188627;23;20086;-88
2023/07/24 00:21:31;;;;;;;27.90;12.70;;;;;;;22.29;46.64;94418.13;6164027;23;20057;-88
2023/07/24 00:23:57;;;;;;;25.70;12.48;;;;;;;22.20;46.47;94414.81;6187978;23;19997;-89
2023/07/24 00:26:22;;;;;;;23.83;12.20;;;;;;;22.28;47.48;94417.34;6163550;23;20079;-89
2023/07/24 00:28:47;;;;;;;24.13;11.93;;;;;;;22.23;47.33;94417.59;6188150;23;20035;-89
2023/07/24 00:31:13;;;;;;;20.98;11.32;;;;;;;22.32;47.22;94409.44;6164335;23;20354;-88
2023/07/24 00:33:38;;;;;;;25.17;12.73;;;;;;;22.12;48.71;94401.31;6162973;23;20020;-89
2023/07/24 00:36:04;;;;;;;23.50;12.35;;;;;;;22.24;47.39;94405.03;6188790;23;20306;-89
2023/07/24 00:38:29;;;;;;;23.80;12.45;;;;;;;21.99;47.67;94395.22;6214780;23;20007;-88
2023/07/24 00:40:55;;;;;;;27.63;12.50;;;;;;;22.11;47.14;94388.31;6188811;23;20306;-88
2023/07/24 00:43:20;;;;;;;26.10;12.52;;;;;;;22.02;48.61;94393.78;6187615;23;20062;-89
2023/07/24 00:45:46;;;;;;;25.70;12.60;;;;;;;21.79;50.39;94390.88;6163992;23;20004;-89
2023/07/24 00:48:12;;;;;;;24.60;12.40;;;;;;;21.88;49.26;94389.63;6188793;23;20075;-89
2023/07/24 00:50:37;;;;;;;25.50;12.52;;;;;;;22.06;48.14;94389.31;6164202;23;20130;-88
2023/07/24 00:53:04;;;;;;;26.40;13.10;;;;;;;21.93;48.82;94387.81;6187811;23;20008;-88
2023/07/24 00:55:29;;;;;;;27.98;12.70;;;;;;;21.82;48.93;94392.84;6187693;23;20094;-87
2023/07/24 00:57:56;;;;;;;24.83;12.27;;;;;;;21.84;48.89;94396.75;6214609;23;20413;-87
2023/07/24 01:00:21;;;;;;;26.45;12.80;;;;;;;21.80;48.02;94403.09;6163435;23;20465;-87
2023/07/24 01:02:47;;;;;;;25.30;13.68;;;;;;;21.67;48.86;94402.34;6187050;23;20011;-88
2023/07/24 01:05:14;;;;;;;25.70;12.68;;;;;;;21.78;47.89;94400.75;6163881;23;20281;-88
2023/07/24 01:07:40;;;;;;;25.42;12.75;;;;;;;21.77;48.91;94401.09;6188284;23;20484;-88
2023/07/24 01:10:06;;;;;;;24.10;12.88;;;;;;;21.75;48.96;94409.44;6163506;23;20000;-88
2023/07/24 01:12:35;;;;;;;28.08;13.25;;;;;;;21.76;47.69;94408.31;6187575;23;20402;-87
2023/07/24 01:15:11;;;;;;;24.27;12.88;;;;;;;21.73;48.02;94414.31;6213801;23;20008;-88
2023/07/24 01:17:43;;;;;;;28.42;13.60;;;;;;;21.72;48.17;94410.09;6188255;23;20429;-88
2023/07/24 01:20:10;;;;;;;25.25;13.23;;;;;;;21.58;49.52;94400.56;6187894;23;20000;-88
2023/07/24 01:22:58;;;;;;;28.85;13.20;;;;;;;21.62;49.32;94411.34;6213932;23;20032;-88
2023/07/24 01:25:29;;;;;;;32.50;13.70;;;;;;;21.82;47.52;94411.53;6163127;23;20055;-87
2023/07/24 01:27:54;;;;;;;25.80;12.73;;;;;;;21.72;51.15;94410.88;6163530;23;20000;-87
2023/07/24 01:30:20;;;;;;;27.92;12.93;;;;;;;21.70;49.46;94399.78;6163313;23;20027;-88
2023/07/24 01:32:46;;;;;;;27.13;14.32;;;;;;;21.65;48.25;94388.53;6187042;23;20000;-87
2023/07/24 01:35:12;;;;;;;28.23;13.60;;;;;;;21.76;47.87;94392.31;6163220;23;20421;-87
2023/07/24 01:37:40;;;;;;;27.17;12.98;;;;;;;21.83;48.07;94397.88;6187830;23;20000;-87
2023/07/24 01:40:06;;;;;;;31.40;14.07;;;;;;;21.66;50.29;94382.91;6163134;23;20008;-88
2023/07/24 01:42:33;;;;;;;30.33;14.52;;;;;;;21.59;51.27;94380.00;6162982;23;20366;-88
2023/07/24 01:44:59;;;;;;;25.33;12.73;;;;;;;21.70;53.00;94367.78;6163021;23;20095;-89
2023/07/24 01:47:24;;;;;;;27.10;13.70;;;;;;;21.49;49.90;94349.25;6163582;23;20011;-90
2023/07/24 01:49:49;;;;;;;32.35;14.35;;;;;;;21.43;49.32;94315.97;6163438;23;20418;-89
2023/07/24 01:52:15;;;;;;;31.15;13.93;;;;;;;21.63;50.00;94324.13;6187777;23;20071;-89
2023/07/24 01:54:40;;;;;;;25.52;12.80;;;;;;;21.68;53.92;94324.69;6187215;23;20098;-89
2023/07/24 01:57:06;;;;;;;27.23;14.15;;;;;;;21.73;49.46;94327.13;6163044;23;20004;-88
2023/07/24 01:59:31;;;;;;;30.88;15.40;;;;;;;21.91;50.31;94315.38;6187828;23;19996;-89
2023/07/24 02:01:57;;;;;;;30.27;14.02;;;;;;;21.97;50.28;94332.69;6163218;23;20000;-89
2023/07/24 02:04:22;;;;;;;30.83;14.50;;;;;;;21.26;54.01;94367.63;6163111;23;20007;-90
2023/07/24 02:06:48;;;;;;;28.95;14.82;;;;;;;21.47;51.98;94397.59;6163605;23;20005;-90
2023/07/24 02:09:14;;;;;;;31.02;15.00;;;;;;;21.71;50.79;94396.00;6187358;23;20000;-89
2023/07/24 02:11:39;;;;;;;31.92;14.55;;;;;;;21.40;53.87;94396.59;6187701;23;20001;-89
2023/07/24 02:14:05;;;;;;;32.20;14.73;;;;;;;21.32;53.40;94377.72;6162493;23;20468;-90
2023/07/24 02:16:30;;;;;;;34.08;14.63;;;;;;;21.32;51.49;94364.41;6162849;23;20000;-88
2023/07/24 02:18:56;;;;;;;29.55;14.65;;;;;;;21.40;51.49;94336.06;6163063;23;20000;-89
2023/07/24 02:21:21;;;;;;;30.40;14.50;;;;;;;21.32;52.72;94319.09;6163096;23;20008;-89
2023/07/24 02:23:46;;;;;;;31.13;15.48;;;;;;;21.09;56.11;94310.81;6162594;23;20003;-88
2023/07/24 02:26:12;;;;;;;31.15;14.48;;;;;;;21.11;58.09;94324.59;6214821;23;20051;-89
2023/07/24 02:28:37;;;;;;;30.80;15.23;;;;;;;21.13;57.06;94314.38;6190939;23;19993;-89
2023/07/24 02:31:03;;;;;;;29.05;14.18;;;;;;;20.99;56.84;94288.09;6166232;23;20027;-90
2023/07/24 02:33:28;;;;;;;26.80;13.55;;;;;;;21.05;58.21;94289.41;6165351;23;20007;-88
2023/07/24 02:35:54;;;;;;;30.55;14.88;;;;;;;20.90;57.27;94272.25;6191005;23;20004;-90
2023/07/24 02:38:19;;;;;;;30.05;14.70;;;;;;;20.81;58.62;94290.22;6190811;23;20489;-89
2023/07/24 02:40:45;;;;;;;33.30;15.82;;;;;;;20.78;57.89;94282.88;6191020;23;20036;-89
2023/07/24 02:43:10;;;;;;;29.67;13.70;;;;;;;21.15;59.14;94280.16;6190413;23;20457;-89
2023/07/24 02:45:37;;;;;;;27.73;13.68;;;;;;;21.21;58.28;94277.28;6165529;23;20058;-88
2023/07/24 02:48:03;;;;;;;27.77;14.00;;;;;;;20.98;62.76;94275.09;6166161;23;20000;-89
2023/07/24 02:50:28;;;;;;;29.50;14.05;;;;;;;20.90;59.13;94292.75;6191329;23;20051;-89
2023/07/24 02:52:54;;;;;;;33.50;14.45;;;;;;;21.29;53.65;94295.81;6166351;23;20020;-88
2023/07/24 02:55:19;;;;;;;29.38;13.70;;;;;;;21.16;59.37;94297.72;6165955;23;20012;-88
2023/07/24 02:57:45;;;;;;;27.27;13.43;;;;;;;21.24;65.10;94301.38;6190429;23;20005;-88
2023/07/24 03:00:11;;;;;;;26.83;13.55;;;;;;;21.20;58.86;94300.47;6166541;23;20000;-88
2023/07/24 03:02:36;;;;;;;31.40;14.10;;;;;;;21.32;59.98;94305.03;6190504;23;20048;-89
2023/07/24 03:05:02;;;;;;;28.50;13.98;;;;;;;21.58;57.00;94291.28;6166087;23;20071;-89
2023/07/24 03:07:28;;;;;;;29.25;14.93;;;;;;;21.55;58.94;94288.50;6190898;23;19996;-88
2023/07/24 03:09:53;;;;;;;31.77;15.02;;;;;;;21.46;65.56;94315.28;6166163;23;20295;-88
2023/07/24 03:12:18;;;;;;;27.80;14.68;;;;;;;21.17;64.79;94325.13;6190754;23;20000;-89
2023/07/24 03:14:44;;;;;;;31.20;15.50;;;;;;;21.21;61.61;94323.34;6190481;23;20429;-89
2023/07/24 03:17:09;;;;;;;27.85;13.65;;;;;;;21.41;62.01;94316.31;6190557;23;20020;-89
2023/07/24 03:19:35;;;;;;;31.90;15.07;;;;;;;21.35;63.79;94311.53;6166633;23;20012;-88
2023/07/24 03:22:00;;;;;;;33.17;15.75;;;;;;;21.45;62.79;94316.41;6190560;23;20000;-89
2023/07/24 03:24:25;;;;;;;29.05;14.65;;;;;;;21.19;62.81;94301.59;6190204;23;20414;-88
2023/07/24 03:26:51;;;;;;;26.90;13.27;;;;;;;21.27;63.07;94284.72;6190511;23;20079;-88
2023/07/24 03:29:16;;;;;;;27.05;13.68;;;;;;;21.35;61.86;94274.25;6190542;23;20071;-89
2023/07/24 03:31:41;;;;;;;29.92;13.35;;;;;;;21.38;60.71;94268.25;6190481;23;20023;-89
2023/07/24 03:34:07;;;;;;;28.17;14.20;;;;;;;21.42;58.60;94269.13;6189955;23;20008;-88
2023/07/24 03:36:33;;;;;;;31.48;13.93;;;;;;;21.33;58.22;94256.69;6190549;23;20043;-88
2023/07/24 03:38:59;;;;;;;27.48;13.57;;;;;;;21.46;60.72;94246.00;6188968;23;20011;-88
2023/07/24 03:41:25;;;;;;;28.48;14.52;;;;;;;21.43;61.22;94220.03;6214820;23;19997;-88
2023/07/24 03:43:51;;;;;;;27.27;12.75;;;;;;;21.38;60.60;94213.06;6163277;23;20372;-88
2023/07/24 03:46:16;;;;;;;27.27;14.20;;;;;;;21.57;64.02;94215.09;6215391;23;20323;-88
2023/07/24 03:48:41;;;;;;;25.67;12.75;;;;;;;21.48;64.31;94211.78;6188968;23;20008;-88
2023/07/24 03:51:08;;;;;;;24.65;13.07;;;;;;;21.33;64.29;94211.41;6164340;23;20459;-88
2023/07/24 03:53:33;;;;;;;27.73;13.75;;;;;;;21.25;62.95;94211.56;6188515;23;20305;-89
2023/07/24 03:55:59;;;;;;;27.73;13.10;;;;;;;21.24;62.54;94218.00;6189192;23;20079;-89
2023/07/24 03:58:24;;;;;;;27.55;14.00;;;;;;;21.19;62.22;94224.34;6188722;23;20098;-89
2023/07/24 04:00:50;;;;;;;29.77;13.60;;;;;;;20.95;63.50;94223.31;6189313;23;20361;-90
2023/07/24 04:03:15;;;;;;;29.92;12.25;;;;;;;20.87;63.39;94224.22;6163489;23;20066;-89
2023/07/24 04:05:41;;;;;;;28.27;13.68;;;;;;;20.83;62.83;94218.00;6164302;23;20075;-88
2023/07/24 04:08:06;;;;;;;23.55;11.77;;;;;;;20.88;64.28;94215.91;6164455;23;20069;-88
2023/07/24 04:10:32;;;;;;;24.77;12.00;;;;;;;20.90;61.67;94223.53;6164236;23;20016;-88
2023/07/24 04:12:57;;;;;;;23.83;11.27;;;;;;;20.91;61.71;94222.41;6214840;23;19996;-89
2023/07/24 04:15:23;;;;;;;22.38;11.35;;;;;;;20.96;62.04;94216.09;6164095;23;20425;-89
2023/07/24 04:17:48;;;;;;;27.70;11.63;;;;;;;20.90;60.95;94216.34;6188338;23;20000;-88
2023/07/24 04:20:14;;;;;;;23.75;11.48;;;;;;;21.12;63.13;94232.91;6163005;23;20093;-89
2023/07/24 04:22:39;;;;;;;23.30;10.85;;;;;;;21.37;57.07;94235.50;6163186;23;20004;-89
2023/07/24 04:25:05;;;;;;;20.02;10.25;;;;;;;21.67;55.02;94253.06;6164066;23;20005;-89
2023/07/24 04:27:30;;;;;;;21.55;8.75;;;;;;;22.20;52.95;94255.53;6163901;23;20000;-88
2023/07/24 04:29:56;;;;;;;21.77;11.00;;;;;;;22.52;52.64;94282.22;6164303;23;20007;-89
2023/07/24 04:32:21;;;;;;;25.90;11.27;;;;;;;22.56;53.15;94293.00;6188539;23;20066;-89
2023/07/24 04:34:47;;;;;;;23.50;12.05;;;;;;;22.51;54.96;94322.59;6163599;23;20020;-89
2023/07/24 04:37:12;;;;;;;25.20;12.32;;;;;;;22.38;56.25;94343.25;6188729;23;20111;-89
2023/07/24 04:39:41;;;;;;;29.92;14.25;;;;;;;22.29;58.67;94352.19;6188597;23;20291;-89
2023/07/24 04:42:06;;;;;;;32.85;14.95;;;;;;;21.99;61.09;94333.13;6188422;23;20003;-89
2023/07/24 04:44:32;;;;;;;32.80;15.07;;;;;;;21.88;64.38;94298.94;6187951;23;20001;-88
2023/07/24 04:46:58;;;;;;;27.85;15.15;;;;;;;21.63;68.24;94284.91;6164301;23;20004;-88
2023/07/24 04:49:24;;;;;;;31.48;15.48;;;;;;;21.42;68.89;94309.09;6188034;23;20079;-89
2023/07/24 04:51:50;;;;;;;32.80;15.05;;;;;;;21.55;70.90;94379.91;6163582;23;20291;-89
2023/07/24 04:54:15;;;;;;;28.77;14.23;;;;;;;21.61;69.96;94404.44;6163210;23;20326;-89
2023/07/24 04:56:41;;;;;;;28.27;13.73;;;;;;;21.57;70.22;94433.66;6188456;23;20433;-89
2023/07/24 04:59:06;;;;;;;28.55;13.93;;;;;;;21.49;68.06;94482.53;6163670;23;20001;-88
2023/07/24 05:01:33;;;;;;;28.45;14.27;;;;;;;21.65;65.64;94503.16;6188336;23;20058;-89
2023/07/24 05:03:59;;;;;;;37.60;14.27;;;;;;;21.69;66.20;94520.09;6187802;23;19999;-88
2023/07/24 05:06:24;;;;;;;33.47;13.85;;;;;;;21.89;64.68;94518.41;6188264;23;20020;-89
2023/07/24 05:08:50;;;;;;;28.38;13.63;;;;;;;22.04;64.75;94519.59;6188276;23;20000;-88
2023/07/24 05:11:15;;;;;;;33.42;15.57;;;;;;;22.03;65.64;94548.19;6163749;23;20009;-89
2023/07/24 05:13:40;;;;;;;30.70;14.85;;;;;;;21.97;70.80;94538.06;6187659;23;19996;-89
2023/07/24 05:16:06;;;;;;;33.33;15.80;;;;;;;22.09;70.08;94515.94;6188257;23;20079;-89
2023/07/24 05:18:31;;;;;;;26.35;14.10;;;;;;;22.11;69.99;94522.50;6163447;23;19996;-88
2023/07/24 05:20:57;;;;;;;30.38;14.80;;;;;;;22.12;69.01;94536.59;6163533;23;20098;-87
2023/07/24 05:23:22;;;;;;;29.67;14.32;;;;;;;21.88;75.05;94528.28;6187588;23;20020;-88
2023/07/24 05:25:56;;;;;;;31.13;14.32;;;;;;;22.22;73.02;94527.31;6163424;23;20005;-89
2023/07/24 05:28:22;;;;;;;30.55;14.48;;;;;;;21.93;78.68;94542.50;6214736;23;20001;-87
2023/07/24 05:30:47;;;;;;;29.17;14.25;;;;;;;21.95;83.20;94502.94;6163348;23;20299;-89
2023/07/24 05:33:12;;;;;;;27.75;14.32;;;;;;;21.87;85.53;94448.59;6162504;23;20004;-89
2023/07/24 05:35:38;;;;;;;36.03;13.63;;;;;;;22.25;85.03;94447.38;6163579;23;20012;-90
2023/07/24 05:38:04;;;;;;;28.58;13.73;;;;;;;22.09;87.45;94479.34;6163595;23;20004;-91
2023/07/24 05:40:29;;;;;;;29.30;14.45;;;;;;;22.31;86.52;94455.94;6163315;23;20000;-90
2023/07/24 05:42:55;;;;;;;29.20;14.43;;;;;;;22.17;91.91;94451.00;6163284;23;20005;-90
2023/07/24 05:45:20;;;;;;;25.80;13.85;;;;;;;22.02;96.67;94465.81;6188416;23;19993;-90
2023/07/24 05:47:45;;;;;;;31.40;15.02;;;;;;;21.75;100.00;94473.41;6187913;23;20055;-89
2023/07/24 05:50:13;;;;;;;29.33;13.80;;;;;;;21.54;100.00;94506.31;6188023;23;20011;-88
2023/07/24 05:52:39;;;;;;;27.70;13.77;;;;;;;21.11;100.00;94499.63;6188151;23;20007;-86
2023/07/24 05:55:05;;;;;;;27.90;13.40;;;;;;;21.33;100.00;94471.78;6163384;23;20507;-88
2023/07/24 05:57:30;;;;;;;33.47;14.02;;;;;;;21.53;100.00;94461.31;6216326;23;19996;-86
2023/07/24 05:59:56;;;;;;;27.75;13.25;;;;;;;21.80;100.00;94413.75;6189405;23;20079;-87
2023/07/24 06:02:21;;;;;;;27.35;13.30;;;;;;;21.37;100.00;94431.88;6189662;23;20054;-89
2023/07/24 06:04:46;;;;;;;27.75;13.18;;;;;;;21.04;100.00;94362.44;6164909;23;19996;-89
2023/07/24 06:07:12;;;;;;;27.63;12.90;;;;;;;21.12;90.57;94293.41;6165141;23;20000;-87
2023/07/24 06:09:37;;;;;;;26.17;11.75;;;;;;;20.69;92.18;94224.44;6164575;23;20012;-90
2023/07/24 06:12:03;;;;;;;25.45;12.50;;;;;;;20.54;100.00;94262.38;6164353;23;20008;-88
2023/07/24 06:14:29;;;;;;;30.33;13.00;;;;;;;20.55;100.00;94224.78;6189562;23;20001;-89
2023/07/24 06:16:54;;;;;;;24.77;11.98;;;;;;;20.60;98.62;94183.84;6165251;23;20004;-88
2023/07/24 06:19:19;;;;;;;27.30;12.63;;;;;;;21.00;100.00;94220.41;6189624;23;20007;-88
2023/07/24 06:21:45;;;;;;;27.45;12.48;;;;;;;21.16;100.00;94263.09;6190126;23;20374;-88
2023/07/24 06:24:12;;;;;;;31.92;13.38;;;;;;;21.21;90.69;94259.41;6164607;23;20005;-90
2023/07/24 06:26:38;;;;;;;29.80;13.68;;;;;;;21.33;86.49;94267.34;6189465;23;20020;-86
2023/07/24 06:29:03;;;;;;;30.95;13.50;;;;;;;21.32;89.70;94287.13;6189760;23;20034;-88
2023/07/24 06:31:32;;;;;;;27.77;13.02;;;;;;;21.75;80.95;94313.44;6188315;23;20032;-87
2023/07/24 06:33:57;;;;;;;25.98;12.25;;;;;;;22.06;77.33;94325.28;6189665;23;20005;-88
2023/07/24 06:36:23;;;;;;;28.15;12.60;;;;;;;22.17;80.63;94344.25;6189342;23;20125;-90
2023/07/24 06:38:51;;;;;;;20.92;11.52;;;;;;;22.42;90.84;94374.25;6215822;23;20012;-89
2023/07/24 06:41:17;;;;;;;24.77;9.65;;;;;;;22.89;69.46;94387.97;6164529;23;20003;-87
2023/07/24 06:43:42;;;;;;;23.75;7.90;;;;;;;23.12;67.20;94388.13;6215803;23;20406;-89
2023/07/24 06:46:08;;;;;;;23.30;11.13;;;;;;;22.72;80.71;94344.50;6189486;23;19993;-89
2023/07/24 06:48:33;;;;;;;20.02;7.00;;;;;;;22.79;71.88;94282.47;6165298;23;20045;-86
2023/07/24 06:51:01;;;;;;;16.73;6.35;;;;;;;22.83;67.82;94229.88;6189444;23;20007;-87
2023/07/24 06:53:26;;;;;;;19.83;10.43;;;;;;;22.55;100.00;94230.81;6164495;23;20001;-89
2023/07/24 06:55:51;;;;;;;27.80;9.57;;;;;;;22.33;98.79;94202.81;6189544;23;19997;-88
2023/07/24 06:58:17;;;;;;;26.52;10.95;;;;;;;22.31;80.52;94200.53;6189534;23;20004;-89
2023/07/24 07:00:42;;;;;;;26.52;10.45;;;;;;;22.27;79.21;94230.91;6164698;23;20051;-87
2023/07/24 07:03:08;;;;;;;24.13;9.07;;;;;;;22.35;78.54;94213.16;6164485;23;20087;-90
2023/07/24 07:05:33;;;;;;;24.80;8.70;;;;;;;22.80;73.07;94211.09;6164479;23;19997;-90
2023/07/24 07:07:59;;;;;;;23.65;8.20;;;;;;;23.25;73.56;94199.06;6188802;23;20402;-89
2023/07/24 07:10:24;;;;;;;28.52;9.07;;;;;;;22.98;77.95;94166.88;6189524;23;20007;-89
2023/07/24 07:12:50;;;;;;;24.40;9.05;;;;;;;23.58;91.40;94155.00;6164396;23;20007;-90
2023/07/24 07:15:15;;;;;;;22.77;8.13;;;;;;;23.63;96.39;94134.44;6166598;23;20442;-90
2023/07/24 07:17:41;;;;;;;23.88;7.57;;;;;;;23.80;79.15;94120.56;6166779;23;20000;-89
2023/07/24 07:20:07;;;;;;;23.48;6.32;;;;;;;24.09;69.84;94104.22;6166558;23;20073;-87
2023/07/24 07:22:32;;;;;;;19.33;5.45;;;;;;;24.71;64.88;94114.63;6191226;23;19993;-90
2023/07/24 07:25:07;;;;;;;27.83;6.32;;;;;;;25.10;62.17;94089.41;6191913;23;20000;-91
2023/07/24 07:27:35;;;;;;;17.65;4.90;;;;;;;25.46;62.81;94090.88;6168701;23;20484;-89
2023/07/24 07:30:08;;;;;;;26.70;6.32;;;;;;;25.50;64.19;94087.13;6192775;23;20001;-92
2023/07/24 07:32:35;;;;;;;25.25;5.88;;;;;;;25.66;63.88;94083.44;6192818;23;20130;-89
2023/07/24 07:35:01;;;;;;;21.98;5.00;;;;;;;25.64;67.52;94075.75;6167455;23;20319;-91
2023/07/24 07:37:26;;;;;;;14.85;5.05;;;;;;;25.83;61.67;94087.41;6191558;23;19997;-92
2023/07/24 07:39:51;;;;;;;19.27;5.30;;;;;;;25.76;65.72;94093.47;6191635;23;20000;-92
2023/07/24 07:42:17;;;;;;;24.40;5.95;;;;;;;26.22;84.28;94124.50;6192068;23;20050;-91
2023/07/24 07:44:45;;;;;;;21.80;5.70;;;;;;;26.39;71.45;94133.03;6191586;23;20426;-92
2023/07/24 07:47:11;;;;;;;21.48;5.70;;;;;;;25.94;73.29;94127.72;6167825;23;20007;-93
2023/07/24 07:49:38;;;;;;;16.48;4.93;;;;;;;26.25;63.12;94071.97;6166646;23;19997;-90
2023/07/24 07:52:04;;;;;;;28.40;5.88;;;;;;;25.45;68.58;94067.91;6191608;23;20000;-89
2023/07/24 07:54:30;;;;;;;20.35;5.13;;;;;;;25.05;74.56;94097.03;6191624;23;20425;-93
2023/07/24 07:56:56;;;;;;;24.10;5.80;;;;;;;24.10;95.75;94074.44;6191704;23;20000;-92
2023/07/24 07:59:21;;;;;;;21.42;5.65;;;;;;;23.67;100.00;94042.44;6191857;23;20007;-92
2023/07/24 08:01:47;;;;;;;20.13;5.38;;;;;;;23.74;100.00;94095.28;6166742;23;20011;-92
2023/07/24 08:04:17;;;;;;;28.23;5.47;;;;;;;23.40;100.00;94022.94;6191928;23;20068;-93
2023/07/24 08:06:44;;;;;;;26.98;5.05;;;;;;;22.90;100.00;93978.19;6168762;23;20005;-92
2023/07/24 08:09:10;;;;;;;25.27;5.43;;;;;;;23.18;100.00;93976.38;6167478;23;20000;-92
2023/07/24 08:11:35;;;;;;;18.92;5.13;;;;;;;23.33;100.00;93972.81;6167063;23;20004;-92
2023/07/24 08:14:01;;;;;;;34.05;5.78;;;;;;;23.67;99.46;94014.91;6191741;23;20406;-93
2023/07/24 08:16:26;;;;;;;25.85;4.53;;;;;;;24.47;83.22;94051.59;6167117;23;20014;-92
2023/07/24 08:18:51;;;;;;;29.63;5.13;;;;;;;24.36;100.00;94038.06;6218119;23;20366;-93
2023/07/24 08:21:17;;;;;;;23.75;5.00;;;;;;;23.99;100.00;94071.56;6191382;23;19996;-90
2023/07/24 08:23:42;;;;;;;33.25;5.75;;;;;;;24.08;88.39;94084.72;6217132;23;20001;-91
2023/07/24 08:26:10;;;;;;;25.48;5.10;;;;;;;25.08;78.63;94097.06;6190695;23;20067;-91
2023/07/24 08:28:43;;;;;;;22.80;4.80;;;;;;;25.54;93.95;94084.50;6167060;23;20028;-92
2023/07/24 08:31:16;;;;;;;25.85;5.15;;;;;;;25.64;100.00;94109.84;6168139;23;20314;-91
2023/07/24 08:33:41;;;;;;;32.47;5.30;;;;;;;25.98;91.24;94115.13;6167679;23;20042;-90
2023/07/24 08:36:12;;;;;;;24.67;4.80;;;;;;;26.25;84.84;94139.09;6166599;23;20005;-91
2023/07/24 08:38:47;;;;;;;;;;;;;;;;;;;;;
2023/07/24 08:41:14;;;;;;;19.65;4.78;;;;;;;26.20;95.08;94203.88;6193516;23;20043;-91
2023/07/24 08:43:53;;;;;;;;;;;;;;;;;;;;;
2023/07/24 08:46:19;;;;;;;23.38;5.07;;;;;;;26.13;82.37;94201.13;6193327;23;20079;-91
2023/07/24 08:48:50;;;;;;;25.63;5.07;;;;;;;26.38;74.65;94196.72;6165411;23;20001;-89
2023/07/24 08:51:23;;;;;;;24.38;5.13;;;;;;;25.96;82.22;94196.00;6217012;23;20476;-90
2023/07/24 08:53:51;;;;;;;17.25;4.97;;;;;;;26.50;79.29;94205.63;6191395;23;20001;-88
2023/07/24 08:56:16;;;;;;;26.63;5.25;;;;;;;26.59;77.51;94181.91;6189618;23;19997;-90
2023/07/24 08:58:42;;;;;;;24.08;5.65;;;;;;;26.42;86.92;94190.63;6165321;23;20011;-90
2023/07/24 09:01:08;;;;;;;21.85;5.75;;;;;;;26.61;76.35;94194.94;6189845;23;20398;-90
2023/07/24 09:03:34;;;;;;;17.05;6.20;;;;;;;27.36;76.51;94191.09;6164784;23;20007;-90
2023/07/24 09:06:09;;;;;;;26.75;6.53;;;;;;;27.56;79.81;94186.16;6165397;23;20056;-91
2023/07/24 09:08:42;;;;;;;18.27;6.03;;;;;;;28.05;79.37;94183.91;6167359;23;20365;-89
2023/07/24 09:11:09;;;;;;;21.42;7.20;;;;;;;28.13;91.62;94187.38;6165503;23;19997;-92
2023/07/24 09:13:41;;;;;;;21.58;5.75;;;;;;;27.70;75.01;94182.75;6165647;23;20330;-93
2023/07/24 09:16:07;;;;;;;18.37;6.20;;;;;;;28.93;61.42;94193.47;6190161;23;19993;-92
2023/07/24 09:18:43;;;;;;;20.95;6.93;;;;;;;28.77;69.54;94198.50;6165086;23;20062;-88
2023/07/24 09:21:09;;;;;;;20.70;6.47;;;;;;;28.85;65.74;94213.53;6189610;23;19996;-90
2023/07/24 09:23:34;;;;;;;15.63;6.13;;;;;;;29.17;73.59;94222.66;6188946;23;20296;-89
2023/07/24 09:26:05;;;;;;;18.30;6.15;;;;;;;29.35;76.68;94244.97;6190315;23;20003;-92
2023/07/24 09:28:30;;;;;;;22.77;7.25;;;;;;;28.57;67.70;94260.13;6164998;23;20111;-89
2023/07/24 09:30:58;;;;;;;24.63;7.10;;;;;;;28.52;67.58;94282.84;6165784;23;20004;-88
2023/07/24 09:33:37;;;;;;;17.88;6.80;;;;;;;28.16;65.58;94274.72;6215459;23;20028;-90
2023/07/24 09:36:04;;;;;;;18.73;6.75;;;;;;;28.49;68.28;94278.22;6165040;23;20020;-89
2023/07/24 09:38:30;;;;;;;24.40;7.78;;;;;;;28.04;72.08;94295.47;6164955;23;20305;-90
2023/07/24 09:40:56;;;;;;;21.58;6.70;;;;;;;28.21;70.63;94255.50;6189465;23;20031;-89
2023/07/24 09:43:25;;;;;;;21.00;7.88;;;;;;;27.47;71.62;94256.44;6188966;23;20008;-90
2023/07/24 09:45:52;;;;;;;15.93;6.95;;;;;;;27.80;71.69;94256.59;6189381;23;20038;-89
2023/07/24 09:48:19;;;;;;;14.57;6.68;;;;;;;27.97;66.77;94270.47;6165281;23;20365;-91
2023/07/24 09:50:47;;;;;;;17.83;7.35;;;;;;;27.87;66.17;94282.75;6164941;23;20008;-91
2023/07/24 09:53:49;;;;;;;18.35;7.82;;;;;;;27.86;68.12;94286.59;6164577;23;20085;-88
2023/07/24 09:56:17;;;;;;;18.30;7.65;;;;;;;27.90;64.49;94273.91;6214774;23;20415;-91
2023/07/24 09:58:44;;;;;;;17.85;7.90;;;;;;;27.80;75.96;94257.34;6189005;23;20024;-89
2023/07/24 10:01:10;;;;;;;33.92;8.60;;;;;;;27.37;77.06;94246.41;6164846;23;20001;-90
2023/07/24 10:03:43;;;;;;;19.88;6.95;;;;;;;27.30;81.42;94235.66;6188729;23;20012;-90
2023/07/24 10:06:11;;;;;;;16.58;7.22;;;;;;;27.74;77.36;94206.97;6165452;23;20005;-90
2023/07/24 10:08:38;;;;;;;21.17;7.78;;;;;;;27.17;83.78;94219.84;6165456;23;20000;-89
2023/07/24 10:11:04;;;;;;;25.88;7.15;;;;;;;27.70;72.29;94201.59;6189579;23;20047;-88
2023/07/24 10:13:30;;;;;;;22.63;8.55;;;;;;;27.22;69.42;94192.56;6189313;23;20004;-91
2023/07/24 10:15:55;;;;;;;24.58;7.50;;;;;;;27.50;74.26;94179.59;6164570;23;20066;-89
2023/07/24 10:18:26;;;;;;;19.25;7.65;;;;;;;28.03;80.19;94174.69;6165154;23;19997;-90
2023/07/24 10:21:00;;;;;;;17.75;7.80;;;;;;;28.44;81.88;94176.25;6165186;23;20007;-89
2023/07/24 10:23:26;;;;;;;19.52;8.90;;;;;;;28.24;72.58;94163.16;6189584;23;20008;-90
2023/07/24 10:25:52;;;;;;;25.27;9.15;;;;;;;28.15;79.47;94162.78;6165578;23;20000;-91
2023/07/24 10:28:18;;;;;;;20.00;8.60;;;;;;;27.90;82.54;94169.69;6164407;23;20007;-89
2023/07/24 10:30:44;;;;;;;23.98;8.77;;;;;;;28.60;79.32;94184.66;6189752;23;20008;-89
2023/07/24 10:33:11;;;;;;;18.10;8.98;;;;;;;28.79;83.47;94193.47;6189217;23;20050;-89
2023/07/24 10:35:44;;;;;;;19.65;9.13;;;;;;;29.27;75.83;94197.56;6189447;23;20028;-91
2023/07/24 10:38:14;;;;;;;24.13;10.15;;;;;;;29.87;78.93;94216.56;6164533;23;20028;-90
2023/07/24 10:40:41;;;;;;;21.52;10.55;;;;;;;28.82;74.38;94216.97;6189527;23;19997;-90
2023/07/24 10:43:11;;;;;;;24.60;10.88;;;;;;;30.02;70.91;94224.56;6188587;23;20004;-90
2023/07/24 10:45:50;;;;;;;31.83;11.55;;;;;;;29.30;81.97;94242.66;6164603;23;20036;-90
2023/07/24 10:48:17;;;;;;;20.42;10.00;;;;;;;29.52;80.09;94248.00;6166015;23;20008;-90
2023/07/24 10:51:09;;;;;;;24.63;10.50;;;;;;;29.08;69.48;94249.28;6166793;23;20008;-91
2023/07/24 10:53:35;;;;;;;20.48;10.32;;;;;;;29.39;78.96;94233.38;6165367;23;20386;-92
2023/07/24 10:56:00;;;;;;;26.40;11.88;;;;;;;29.16;75.86;94216.50;6166957;23;20008;-90
2023/07/24 10:58:27;;;;;;;21.27;10.55;;;;;;;27.74;83.06;94186.22;6191454;23;19997;-90
2023/07/24 11:00:52;;;;;;;23.83;10.25;;;;;;;28.90;81.88;94167.28;6191301;23;20001;-88
2023/07/24 11:03:17;;;;;;;20.02;10.30;;;;;;;29.40;78.92;94179.00;6217390;23;20409;-87
2023/07/24 11:05:44;;;;;;;29.33;11.10;;;;;;;29.21;73.07;94177.56;6190734;23;19997;-90
2023/07/24 11:08:15;;;;;;;27.05;10.35;;;;;;;29.52;77.75;94171.66;6191217;23;20112;-88
2023/07/24 11:10:47;;;;;;;23.95;11.00;;;;;;;29.48;72.14;94167.06;6166733;23;20075;-91
2023/07/24 11:13:13;;;;;;;23.02;10.20;;;;;;;29.56;76.61;94162.38;6190682;23;19997;-88
2023/07/24 11:15:39;;;;;;;25.15;10.75;;;;;;;30.07;73.48;94155.88;6217393;23;20087;-89
2023/07/24 11:18:08;;;;;;;24.70;11.07;;;;;;;29.47;80.11;94159.34;6191056;23;20299;-87
2023/07/24 11:20:36;;;;;;;30.55;12.13;;;;;;;29.88;75.56;94160.63;6167273;23;20008;-88